Time;durP1;ratioP1;P1;durP2;ratioP2;P2;SDS_P1;SDS_P2;PMS_P1;PMS_P2;Temp;Humidity;BMP_temperature;BMP_pressure;BME280_temperature;BME280_humidity;BME280_pressure;Samples;Min_cycle;Max_cycle;Signal;HPM_P1;HPM_P2
2021/08/01 00:00:57;;;;;;;1.40;1.30;;;13.70;91.20;;;;;;2056882;28;20179;-66
2021/08/01 00:01:58;;;;;;;0.83;0.83;;;13.70;91.10;;;;;;2055596;28;20187;-66
2021/08/01 00:02:59;;;;;;;1.93;1.40;;;13.70;91.10;;;;;;2055790;28;20179;-66
2021/08/01 00:04:00;;;;;;;1.60;1.37;;;13.60;90.90;;;;;;2047876;28;20677;-67
2021/08/01 00:05:00;;;;;;;0.97;0.80;;;13.60;90.90;;;;;;2048333;29;20326;-66
2021/08/01 00:06:01;;;;;;;0.70;0.70;;;13.60;90.80;;;;;;2056367;28;20277;-66
2021/08/01 00:07:02;;;;;;;1.40;1.30;;;13.60;90.80;;;;;;2056642;28;20179;-66
2021/08/01 00:08:04;;;;;;;2.67;1.13;;;13.50;90.90;;;;;;2056242;28;20218;-66
2021/08/01 00:09:04;;;;;;;1.27;1.00;;;13.60;91.10;;;;;;2056467;28;20250;-66
2021/08/01 00:10:08;;;;;;;0.77;0.77;;;13.60;90.90;;;;;;2057027;28;20242;-66
2021/08/01 00:11:09;;;;;;;0.75;0.75;;;13.50;91.00;;;;;;2056946;28;20261;-66
2021/08/01 00:12:10;;;;;;;1.38;1.27;;;13.50;91.00;;;;;;2056774;28;20258;-66
2021/08/01 00:13:11;;;;;;;1.30;1.20;;;13.50;91.40;;;;;;2057020;28;20179;-66
2021/08/01 00:14:11;;;;;;;1.40;1.30;;;13.40;90.70;;;;;;2056085;28;20211;-66
2021/08/01 00:15:13;;;;;;;0.60;0.60;;;13.40;90.70;;;;;;2056288;28;20182;-66
2021/08/01 00:16:14;;;;;;;0.75;0.75;;;13.40;90.60;;;;;;2048463;28;20179;-66
2021/08/01 00:17:15;;;;;;;1.40;1.30;;;13.40;90.80;;;;;;2056058;28;20179;-66
2021/08/01 00:18:15;;;;;;;13.23;1.20;;;13.40;90.90;;;;;;2056809;28;20226;-66
2021/08/01 00:19:16;;;;;;;0.77;0.77;;;13.40;90.90;;;;;;2056732;28;20662;-66
2021/08/01 00:20:17;;;;;;;1.23;1.13;;;13.40;90.60;;;;;;2056859;28;20175;-66
2021/08/01 00:21:17;;;;;;;1.03;1.03;;;13.40;90.50;;;;;;2056096;28;20222;-66
2021/08/01 00:22:19;;;;;;;1.37;1.27;;;13.40;90.30;;;;;;2056176;28;20171;-66
2021/08/01 00:23:20;;;;;;;0.77;0.77;;;13.30;90.30;;;;;;2056877;28;20175;-67
2021/08/01 00:24:21;;;;;;;1.33;1.10;;;13.30;90.30;;;;;;2056663;28;20206;-66
2021/08/01 00:25:21;;;;;;;0.87;0.87;;;13.30;90.30;;;;;;2056251;28;20211;-66
2021/08/01 00:26:22;;;;;;;0.83;0.83;;;13.30;90.30;;;;;;2056417;28;20183;-66
2021/08/01 00:27:23;;;;;;;5.80;0.97;;;13.20;90.10;;;;;;2056110;28;20179;-67
2021/08/01 00:28:25;;;;;;;0.97;0.97;;;13.20;90.20;;;;;;2056416;28;20623;-66
2021/08/01 00:29:25;;;;;;;3.55;1.05;;;13.20;90.30;;;;;;2056095;28;20179;-66
2021/08/01 00:30:26;;;;;;;0.90;0.90;;;13.20;90.40;;;;;;2058866;28;20248;-66
2021/08/01 00:31:27;;;;;;;2.80;1.20;;;13.20;90.40;;;;;;2056159;28;20252;-66
2021/08/01 00:32:27;;;;;;;0.90;0.90;;;13.20;90.50;;;;;;2056269;28;20329;-66
2021/08/01 00:33:28;;;;;;;0.83;0.83;;;13.10;90.80;;;;;;2056585;28;20661;-66
2021/08/01 00:34:29;;;;;;;0.83;0.80;;;13.10;90.80;;;;;;2056819;28;20286;-66
2021/08/01 00:35:30;;;;;;;1.13;1.02;;;13.20;90.90;;;;;;2057037;28;20179;-66
2021/08/01 00:36:31;;;;;;;1.00;0.97;;;13.20;90.80;;;;;;2056791;28;20234;-70
2021/08/01 00:37:32;;;;;;;1.87;1.50;;;13.20;90.90;;;;;;2057232;28;20179;-66
2021/08/01 00:38:32;;;;;;;0.70;0.70;;;13.20;91.00;;;;;;2057825;28;20740;-66
2021/08/01 00:39:33;;;;;;;1.23;0.87;;;13.20;91.40;;;;;;2057684;28;20237;-66
2021/08/01 00:40:37;;;;;;;1.57;1.30;;;13.20;91.60;;;;;;2057640;28;20210;-66
2021/08/01 00:41:37;;;;;;;0.70;0.70;;;13.20;91.90;;;;;;2057667;28;20186;-66
2021/08/01 00:42:41;;;;;;;1.63;1.50;;;13.20;91.90;;;;;;2057738;28;20207;-66
2021/08/01 00:43:42;;;;;;;1.40;0.77;;;13.20;91.90;;;;;;2057655;28;20182;-66
2021/08/01 00:44:43;;;;;;;1.23;1.23;;;13.20;91.80;;;;;;2057757;28;20784;-66
2021/08/01 00:45:44;;;;;;;0.87;0.87;;;13.20;91.80;;;;;;2058199;28;20262;-66
2021/08/01 00:46:46;;;;;;;1.40;1.30;;;13.20;91.80;;;;;;2057701;28;20194;-66
2021/08/01 00:47:46;;;;;;;0.60;0.60;;;13.10;91.90;;;;;;2057420;28;20182;-66
2021/08/01 00:48:47;;;;;;;1.40;1.30;;;13.10;92.10;;;;;;2058314;28;20674;-66
2021/08/01 00:49:48;;;;;;;1.00;1.00;;;13.10;92.10;;;;;;2058144;28;20530;-66
2021/08/01 00:50:49;;;;;;;0.90;0.90;;;13.10;92.10;;;;;;2049430;29;20191;-66
2021/08/01 00:51:49;;;;;;;1.42;1.30;;;13.20;91.90;;;;;;2041726;28;20189;-66
2021/08/01 00:52:51;;;;;;;2.33;1.33;;;13.20;91.70;;;;;;2049640;29;20188;-66
2021/08/01 00:53:52;;;;;;;0.80;0.80;;;13.20;91.70;;;;;;2057501;28;20202;-66
2021/08/01 00:54:52;;;;;;;0.67;0.67;;;13.20;91.60;;;;;;2058219;28;20231;-66
2021/08/01 00:55:53;;;;;;;1.30;1.20;;;13.30;91.60;;;;;;2057608;28;20322;-66
2021/08/01 00:56:55;;;;;;;1.10;1.00;;;13.30;91.80;;;;;;2049480;29;20176;-66
2021/08/01 00:57:55;;;;;;;1.50;1.20;;;13.20;91.90;;;;;;2057717;28;20190;-66
2021/08/01 00:58:56;;;;;;;1.30;1.20;;;13.20;91.90;;;;;;2065696;28;20647;-67
2021/08/01 00:59:57;;;;;;;1.00;0.87;;;13.20;92.10;;;;;;2049376;28;20270;-66
2021/08/01 01:01:08;;;;;;;1.00;1.00;;;13.20;92.30;;;;;;2041615;28;20176;-65
2021/08/01 01:02:16;;;;;;;1.13;1.02;;;13.10;92.30;;;;;;2050844;28;20239;-66
2021/08/01 01:03:24;;;;;;;10.05;0.80;;;13.20;92.80;;;;;;2057671;28;20171;-66
2021/08/01 01:04:56;;;;;;;1.00;1.00;;;13.20;92.20;;;;;;2050349;28;20674;-66
2021/08/01 01:06:02;;;;;;;42.58;1.77;;;13.20;92.20;;;;;;2053862;28;20197;-66
2021/08/01 01:07:17;;;;;;;1.10;1.00;;;13.20;92.10;;;;;;2050136;28;20187;-66
2021/08/01 01:08:29;;;;;;;1.63;1.52;;;13.20;92.10;;;;;;2057639;28;20167;-66
2021/08/01 01:09:57;;;;;;;2.35;1.05;;;13.20;92.30;;;;;;2057514;28;20248;-66
2021/08/01 01:11:01;;;;;;;1.27;1.13;;;13.30;92.20;;;;;;2057481;28;20190;-66
2021/08/01 01:12:09;;;;;;;1.30;1.15;;;13.30;92.10;;;;;;2050134;28;20206;-66
2021/08/01 01:13:18;;;;;;;1.67;1.50;;;13.30;92.10;;;;;;2050317;28;20355;-67
2021/08/01 01:14:26;;;;;;;2.08;1.63;;;13.30;92.10;;;;;;2057394;28;20215;-66
2021/08/01 01:15:30;;;;;;;1.15;1.15;;;13.30;92.10;;;;;;2057432;28;20187;-66
2021/08/01 01:16:43;;;;;;;1.20;1.10;;;13.30;92.00;;;;;;2057548;28;20290;-66
2021/08/01 01:17:48;;;;;;;1.48;1.38;;;13.30;91.90;;;;;;2057537;28;20171;-66
2021/08/01 01:18:54;;;;;;;1.13;1.10;;;13.20;91.70;;;;;;2050279;28;20171;-66
2021/08/01 01:20:13;;;;;;;0.88;0.82;;;13.20;91.90;;;;;;2057531;28;20163;-66
2021/08/01 01:21:46;;;;;;;1.02;0.95;;;13.20;92.00;;;;;;2051893;28;20164;-66
2021/08/01 01:23:05;;;;;;;0.80;0.80;;;13.10;92.00;;;;;;2057596;28;20176;-66
2021/08/01 01:24:08;;;;;;;1.92;1.67;;;13.10;92.00;;;;;;2057363;28;20187;-66
2021/08/01 01:25:19;;;;;;;0.93;0.93;;;13.20;91.90;;;;;;2057971;28;20164;-66
2021/08/01 01:26:34;;;;;;;1.25;1.25;;;13.10;91.80;;;;;;2057575;28;20170;-66
2021/08/01 01:27:43;;;;;;;1.73;1.38;;;13.20;91.80;;;;;;2057222;28;20221;-66
2021/08/01 01:29:04;;;;;;;0.98;0.98;;;13.10;91.90;;;;;;2057350;28;20167;-66
2021/08/01 01:30:06;;;;;;;1.00;0.82;;;13.10;91.90;;;;;;2057588;28;20657;-66
2021/08/01 01:31:36;;;;;;;0.95;0.93;;;13.10;91.90;;;;;;2057996;28;20191;-66
2021/08/01 01:32:54;;;;;;;1.85;1.75;;;13.10;91.90;;;;;;2057495;28;20175;-66
2021/08/01 01:33:58;;;;;;;1.00;0.88;;;13.10;92.00;;;;;;2057364;28;20257;-66
2021/08/01 01:35:08;;;;;;;4.30;1.45;;;13.00;91.80;;;;;;2057308;28;20182;-66
2021/08/01 01:36:10;;;;;;;1.95;1.20;;;13.00;91.90;;;;;;2057337;28;20580;-66
2021/08/01 01:37:15;;;;;;;0.63;0.63;;;13.10;92.40;;;;;;2048937;28;20564;-66
2021/08/01 01:38:17;;;;;;;1.55;1.45;;;13.10;92.10;;;;;;2049890;28;20259;-66
2021/08/01 01:39:20;;;;;;;0.95;0.95;;;13.10;92.00;;;;;;2057204;28;20238;-66
2021/08/01 01:40:22;;;;;;;1.15;1.05;;;13.10;92.00;;;;;;2057391;28;20171;-66
2021/08/01 01:41:26;;;;;;;1.50;1.33;;;13.10;92.10;;;;;;2057389;28;20175;-66
2021/08/01 01:42:29;;;;;;;1.58;1.42;;;13.10;92.00;;;;;;2049797;28;20180;-66
2021/08/01 01:43:30;;;;;;;1.40;1.30;;;13.10;92.00;;;;;;2049783;28;20226;-66
2021/08/01 01:44:34;;;;;;;1.37;1.27;;;13.10;92.40;;;;;;2057284;28;20222;-66
2021/08/01 01:45:36;;;;;;;0.85;0.85;;;13.10;92.10;;;;;;2057383;28;20729;-66
2021/08/01 01:46:37;;;;;;;2.85;1.52;;;13.10;92.10;;;;;;2057212;28;20187;-66
2021/08/01 01:47:38;;;;;;;1.25;1.10;;;13.20;92.10;;;;;;2057954;28;20175;-66
2021/08/01 01:48:40;;;;;;;2.45;1.88;;;13.20;92.00;;;;;;2057278;28;20556;-66
2021/08/01 01:49:42;;;;;;;0.80;0.80;;;13.10;91.90;;;;;;2057271;28;20179;-66
2021/08/01 01:50:43;;;;;;;0.98;0.98;;;13.20;92.00;;;;;;2057326;28;20175;-68
2021/08/01 01:51:45;;;;;;;0.75;0.75;;;13.20;91.90;;;;;;2057567;28;20230;-66
2021/08/01 01:52:50;;;;;;;1.05;1.05;;;13.20;91.90;;;;;;2057458;28;20548;-66
2021/08/01 01:53:52;;;;;;;1.90;1.52;;;13.20;92.00;;;;;;2057510;28;20218;-66
2021/08/01 01:54:53;;;;;;;1.33;1.23;;;13.20;92.00;;;;;;2057297;28;20626;-66
2021/08/01 01:55:54;;;;;;;0.75;0.75;;;13.20;92.00;;;;;;2057778;28;20278;-66
2021/08/01 01:56:55;;;;;;;1.67;1.23;;;13.20;92.00;;;;;;2057726;28;20179;-66
2021/08/01 01:57:56;;;;;;;1.20;1.10;;;13.20;92.10;;;;;;2049312;29;20751;-66
2021/08/01 01:58:58;;;;;;;1.20;1.00;;;13.20;92.00;;;;;;2041213;29;20196;-67
2021/08/01 02:00:02;;;;;;;0.90;0.90;;;13.20;91.90;;;;;;2056933;28;20190;-66
2021/08/01 02:01:03;;;;;;;1.40;1.30;;;13.20;91.80;;;;;;2057663;28;20203;-66
2021/08/01 02:02:06;;;;;;;1.50;1.37;;;13.20;91.80;;;;;;2057150;28;20183;-67
2021/08/01 02:03:07;;;;;;;0.77;0.77;;;13.20;91.80;;;;;;2057174;28;20175;-66
2021/08/01 02:04:08;;;;;;;0.90;0.90;;;13.20;91.70;;;;;;2057049;28;20175;-67
2021/08/01 02:05:09;;;;;;;0.93;0.93;;;13.20;91.60;;;;;;2057152;28;20662;-66
2021/08/01 02:06:14;;;;;;;1.10;1.00;;;13.10;91.50;;;;;;2057579;28;20238;-67
2021/08/01 02:07:20;;;;;;;1.17;1.08;;;13.10;91.60;;;;;;2056855;28;20604;-66
2021/08/01 02:08:21;;;;;;;1.55;1.15;;;13.10;91.70;;;;;;2057112;28;20239;-66
2021/08/01 02:09:54;;;;;;;1.23;1.13;;;13.10;91.70;;;;;;2056936;28;20186;-66
2021/08/01 02:10:59;;;;;;;1.13;1.10;;;13.10;91.80;;;;;;2053152;28;20183;-71
2021/08/01 02:12:34;;;;;;;2.72;1.10;;;13.10;91.80;;;;;;2049636;28;20187;-66
2021/08/01 02:13:48;;;;;;;2.50;1.30;;;13.10;91.50;;;;;;2053391;28;20273;-65
2021/08/01 02:15:05;;;;;;;5.68;1.38;;;13.10;91.70;;;;;;2057106;28;20206;-65
2021/08/01 02:16:07;;;;;;;1.02;1.02;;;13.10;91.70;;;;;;2057146;28;20167;-68
2021/08/01 02:17:11;;;;;;;1.23;1.13;;;13.00;91.60;;;;;;2057465;28;20267;-65
2021/08/01 02:18:34;;;;;;;1.05;1.05;;;13.00;91.60;;;;;;2057114;28;20175;-65
2021/08/01 02:19:39;;;;;;;1.45;1.10;;;13.10;91.80;;;;;;2056933;28;20447;-65
2021/08/01 02:20:44;;;;;;;1.08;0.98;;;13.10;91.90;;;;;;2057167;28;20182;-65
2021/08/01 02:21:46;;;;;;;1.48;1.38;;;13.10;92.00;;;;;;2056959;28;20174;-66
2021/08/01 02:22:50;;;;;;;2.60;1.20;;;13.10;92.40;;;;;;2057447;28;20187;-65
2021/08/01 02:23:51;;;;;;;1.63;1.52;;;13.10;91.90;;;;;;2058952;28;20199;-66
2021/08/01 02:24:54;;;;;;;1.17;1.10;;;13.10;91.90;;;;;;2056782;28;20238;-65
2021/08/01 02:25:56;;;;;;;3.50;1.45;;;13.10;92.00;;;;;;2056864;28;20191;-65
2021/08/01 02:26:58;;;;;;;1.50;1.40;;;13.10;92.50;;;;;;2056654;28;20199;-66
2021/08/01 02:28:02;;;;;;;1.85;1.17;;;13.10;92.00;;;;;;2056931;28;20662;-66
2021/08/01 02:29:05;;;;;;;1.70;1.02;;;13.10;91.90;;;;;;2056977;28;20273;-65
2021/08/01 02:30:06;;;;;;;1.25;1.08;;;13.10;92.00;;;;;;2056852;28;20184;-65
2021/08/01 02:31:08;;;;;;;1.27;1.20;;;13.10;92.20;;;;;;2048948;28;20192;-65
2021/08/01 02:32:10;;;;;;;1.65;1.48;;;13.00;92.40;;;;;;2056787;28;20183;-66
2021/08/01 02:33:12;;;;;;;1.45;1.35;;;13.00;92.50;;;;;;2056704;28;20748;-66
2021/08/01 02:34:13;;;;;;;1.58;1.48;;;13.00;92.50;;;;;;2056692;28;20599;-66
2021/08/01 02:35:15;;;;;;;0.95;0.95;;;13.00;92.50;;;;;;2056886;28;20187;-66
2021/08/01 02:36:19;;;;;;;2.22;1.70;;;13.00;92.50;;;;;;2049070;28;20179;-66
2021/08/01 02:37:20;;;;;;;1.08;0.98;;;13.00;92.50;;;;;;2056765;28;20226;-65
2021/08/01 02:38:22;;;;;;;0.88;0.88;;;13.00;92.50;;;;;;2056743;28;20183;-65
2021/08/01 02:39:23;;;;;;;2.03;1.83;;;13.10;92.50;;;;;;2056850;28;20171;-66
2021/08/01 02:40:27;;;;;;;1.17;1.08;;;13.10;92.60;;;;;;2056813;28;20182;-65
2021/08/01 02:41:34;;;;;;;2.10;1.35;;;13.10;92.70;;;;;;2056961;28;20278;-65
2021/08/01 02:42:34;;;;;;;2.42;1.35;;;13.10;92.70;;;;;;2049687;28;20176;-66
2021/08/01 02:43:35;;;;;;;1.53;1.43;;;13.00;92.70;;;;;;2048909;28;20180;-66
2021/08/01 02:44:37;;;;;;;1.13;1.03;;;13.10;92.70;;;;;;2056684;28;20211;-65
2021/08/01 02:45:41;;;;;;;1.25;1.17;;;13.10;92.50;;;;;;2057421;28;20183;-66
2021/08/01 02:46:44;;;;;;;1.70;1.60;;;13.10;92.20;;;;;;2056632;28;20210;-66
2021/08/01 02:47:49;;;;;;;2.00;1.13;;;13.10;92.10;;;;;;2048967;28;20179;-65
2021/08/01 02:48:55;;;;;;;4.43;0.80;;;13.10;91.80;;;;;;2056723;28;20472;-66
2021/08/01 02:49:58;;;;;;;1.27;1.13;;;13.10;91.80;;;;;;2049750;28;20206;-66
2021/08/01 02:51:04;;;;;;;2.10;1.75;;;13.10;91.70;;;;;;2056710;28;20593;-66
2021/08/01 02:52:06;;;;;;;2.83;1.48;;;13.10;91.60;;;;;;2056635;28;20175;-66
2021/08/01 02:53:17;;;;;;;0.90;0.90;;;13.00;91.60;;;;;;2056656;28;20258;-65
2021/08/01 02:54:21;;;;;;;2.75;1.25;;;13.00;91.70;;;;;;2056599;28;20206;-65
2021/08/01 02:55:22;;;;;;;5.82;1.20;;;13.00;91.80;;;;;;2056663;28;20650;-65
2021/08/01 02:56:26;;;;;;;4.10;1.70;;;13.00;91.70;;;;;;2056822;28;20641;-66
2021/08/01 02:57:30;;;;;;;1.90;0.85;;;13.00;91.60;;;;;;2048825;28;20180;-66
2021/08/01 02:58:33;;;;;;;0.85;0.85;;;13.00;91.50;;;;;;2054562;28;20182;-65
2021/08/01 02:59:36;;;;;;;1.20;1.05;;;13.00;91.20;;;;;;2063270;28;20197;-66
2021/08/01 03:00:38;;;;;;;1.40;1.30;;;13.00;91.30;;;;;;2064214;28;20738;-65
2021/08/01 03:01:39;;;;;;;1.15;1.15;;;13.00;91.40;;;;;;2056528;28;20591;-66
2021/08/01 03:02:40;;;;;;;1.40;1.30;;;13.00;91.40;;;;;;2064677;28;20182;-65
2021/08/01 03:03:43;;;;;;;1.47;1.30;;;13.00;91.50;;;;;;2064925;28;20229;-66
2021/08/01 03:04:45;;;;;;;0.80;0.80;;;13.00;91.50;;;;;;2064444;28;20198;-66
2021/08/01 03:05:46;;;;;;;1.30;1.27;;;13.00;91.30;;;;;;2056636;28;20273;-65
2021/08/01 03:06:47;;;;;;;1.50;1.40;;;13.00;91.40;;;;;;2056664;28;20189;-65
2021/08/01 03:07:49;;;;;;;3.13;1.42;;;13.00;91.40;;;;;;2064581;28;20178;-66
2021/08/01 03:08:50;;;;;;;1.02;1.02;;;13.00;91.30;;;;;;2064621;28;20187;-65
2021/08/01 03:09:56;;;;;;;3.03;2.00;;;13.00;91.30;;;;;;2056586;28;20472;-65
2021/08/01 03:10:57;;;;;;;1.33;1.23;;;13.00;91.30;;;;;;2064735;28;20716;-65
2021/08/01 03:12:12;;;;;;;1.30;1.20;;;13.00;91.20;;;;;;2064779;28;20224;-66
2021/08/01 03:13:13;;;;;;;0.90;0.90;;;13.00;91.20;;;;;;2058458;28;20611;-65
2021/08/01 03:14:14;;;;;;;7.68;1.65;;;13.00;91.30;;;;;;2064406;28;20218;-66
2021/08/01 03:15:16;;;;;;;1.10;1.00;;;13.00;91.20;;;;;;2064669;28;20170;-66
2021/08/01 03:16:16;;;;;;;1.83;1.45;;;13.00;90.90;;;;;;2056833;28;20206;-67
2021/08/01 03:17:17;;;;;;;1.50;1.40;;;12.90;90.60;;;;;;2064672;28;20305;-66
2021/08/01 03:18:18;;;;;;;1.57;1.47;;;12.90;90.80;;;;;;2065394;28;20187;-65
2021/08/01 03:19:19;;;;;;;1.00;1.00;;;12.90;91.00;;;;;;2064646;28;20264;-65
2021/08/01 03:20:19;;;;;;;1.13;1.10;;;12.80;91.40;;;;;;2064760;28;20174;-65
2021/08/01 03:21:20;;;;;;;0.93;0.90;;;12.80;91.30;;;;;;2065177;28;20182;-66
2021/08/01 03:22:21;;;;;;;1.73;1.60;;;12.80;91.30;;;;;;2064589;28;20217;-66
2021/08/01 03:23:21;;;;;;;1.23;1.13;;;12.80;91.40;;;;;;2064575;28;20178;-65
2021/08/01 03:24:22;;;;;;;1.47;1.20;;;12.80;91.40;;;;;;2065127;28;20218;-66
2021/08/01 03:25:23;;;;;;;8.77;1.67;;;12.80;91.40;;;;;;2065068;28;20558;-66
2021/08/01 03:26:24;;;;;;;1.10;1.00;;;12.80;91.50;;;;;;2064619;28;20236;-65
2021/08/01 03:27:25;;;;;;;1.27;1.17;;;12.80;91.40;;;;;;2064523;28;20186;-65
2021/08/01 03:28:26;;;;;;;0.90;0.90;;;12.80;91.20;;;;;;2064655;28;20189;-66
2021/08/01 03:29:27;;;;;;;0.87;0.87;;;12.80;91.30;;;;;;2056418;28;20210;-66
2021/08/01 03:30:28;;;;;;;1.07;1.07;;;12.80;91.30;;;;;;2056521;28;20794;-66
2021/08/01 03:31:29;;;;;;;1.70;1.33;;;12.80;91.50;;;;;;2064928;28;20186;-66
2021/08/01 03:32:30;;;;;;;1.63;0.93;;;12.80;91.40;;;;;;2065238;28;20526;-66
2021/08/01 03:33:30;;;;;;;0.87;0.87;;;12.80;91.40;;;;;;2064458;28;20190;-66
2021/08/01 03:34:31;;;;;;;2.43;1.53;;;12.80;91.50;;;;;;2064555;28;20670;-66
2021/08/01 03:35:32;;;;;;;1.20;1.10;;;12.80;91.50;;;;;;2064496;28;20171;-66
2021/08/01 03:36:33;;;;;;;0.67;0.67;;;12.80;91.40;;;;;;2065282;28;20178;-66
2021/08/01 03:37:33;;;;;;;1.30;1.08;;;12.80;91.40;;;;;;2064924;28;20567;-66
2021/08/01 03:38:34;;;;;;;1.93;1.40;;;12.80;91.40;;;;;;2065061;28;20182;-65
2021/08/01 03:39:36;;;;;;;0.70;0.70;;;12.70;91.40;;;;;;2064180;28;20200;-65
2021/08/01 03:40:36;;;;;;;1.60;1.15;;;12.70;91.30;;;;;;2064375;28;20316;-65
2021/08/01 03:41:39;;;;;;;1.70;1.60;;;12.70;91.30;;;;;;2065023;28;20266;-65
2021/08/01 03:42:39;;;;;;;0.73;0.70;;;12.70;91.30;;;;;;2064456;28;20187;-65
2021/08/01 03:43:40;;;;;;;1.10;1.00;;;12.70;91.30;;;;;;2064385;28;20645;-65
2021/08/01 03:44:41;;;;;;;1.37;1.27;;;12.60;91.30;;;;;;2064798;28;20198;-65
2021/08/01 03:45:41;;;;;;;1.03;0.93;;;12.60;91.30;;;;;;2064925;28;20273;-65
2021/08/01 03:46:42;;;;;;;1.20;1.10;;;12.70;91.50;;;;;;2064412;28;20202;-66
2021/08/01 03:47:43;;;;;;;1.43;1.37;;;12.70;91.70;;;;;;2064036;28;20630;-65
2021/08/01 03:48:43;;;;;;;1.63;1.47;;;12.60;91.60;;;;;;2064348;28;20186;-67
2021/08/01 03:49:44;;;;;;;0.60;0.60;;;12.70;91.60;;;;;;2064817;28;20197;-65
2021/08/01 03:50:45;;;;;;;1.30;1.20;;;12.70;91.60;;;;;;2064874;28;20170;-65
2021/08/01 03:51:45;;;;;;;1.07;1.07;;;12.70;91.80;;;;;;2064930;28;20269;-65
2021/08/01 03:52:46;;;;;;;2.20;1.30;;;12.70;91.70;;;;;;2064804;28;20273;-65
2021/08/01 03:53:47;;;;;;;1.70;1.13;;;12.60;91.60;;;;;;2064637;28;20240;-65
2021/08/01 03:54:47;;;;;;;5.43;2.03;;;12.70;91.80;;;;;;2064148;28;20765;-66
2021/08/01 03:55:48;;;;;;;1.50;1.00;;;12.70;91.80;;;;;;2064312;28;20353;-66
2021/08/01 03:56:49;;;;;;;0.80;0.80;;;12.70;91.70;;;;;;2064129;28;20451;-65
2021/08/01 03:57:49;;;;;;;0.70;0.70;;;12.60;91.60;;;;;;2064786;28;20185;-65
2021/08/01 03:58:50;;;;;;;0.83;0.83;;;12.60;91.70;;;;;;2064572;28;20275;-66
2021/08/01 03:59:51;;;;;;;1.43;1.03;;;12.60;91.60;;;;;;2064845;28;20728;-66
2021/08/01 04:00:52;;;;;;;0.97;0.80;;;12.60;91.70;;;;;;2064589;28;20329;-65
2021/08/01 04:01:52;;;;;;;0.87;0.87;;;12.60;91.70;;;;;;2064138;28;20429;-65
2021/08/01 04:02:53;;;;;;;1.17;1.07;;;12.70;91.80;;;;;;2064112;28;20206;-65
2021/08/01 04:03:54;;;;;;;1.03;1.00;;;12.70;91.80;;;;;;2064900;28;20206;-65
2021/08/01 04:04:55;;;;;;;0.90;0.90;;;12.70;91.80;;;;;;2064716;28;20202;-65
2021/08/01 04:05:55;;;;;;;2.43;1.10;;;12.70;91.80;;;;;;2056134;28;20183;-65
2021/08/01 04:06:56;;;;;;;0.90;0.90;;;12.70;91.80;;;;;;2048048;28;20218;-65
2021/08/01 04:07:57;;;;;;;1.03;0.90;;;12.60;91.80;;;;;;2064151;28;20182;-65
2021/08/01 04:08:58;;;;;;;1.37;1.30;;;12.70;91.70;;;;;;2064690;28;20178;-65
2021/08/01 04:09:59;;;;;;;1.13;1.02;;;12.60;91.70;;;;;;2064684;28;20182;-65
2021/08/01 04:11:05;;;;;;;1.03;1.03;;;12.70;91.80;;;;;;2056080;28;20661;-65
2021/08/01 04:12:06;;;;;;;1.00;0.90;;;12.70;91.80;;;;;;2056281;28;20175;-66
2021/08/01 04:13:07;;;;;;;1.95;1.45;;;12.70;91.80;;;;;;2063987;28;20182;-65
2021/08/01 04:14:08;;;;;;;1.67;1.10;;;12.60;91.80;;;;;;2063970;28;20599;-65
2021/08/01 04:15:11;;;;;;;1.77;1.53;;;12.60;91.80;;;;;;2064676;28;20181;-65
2021/08/01 04:16:12;;;;;;;1.40;1.30;;;12.70;91.80;;;;;;2064749;28;20171;-65
2021/08/01 04:17:12;;;;;;;1.77;1.10;;;12.60;91.70;;;;;;2064565;28;20654;-65
2021/08/01 04:18:13;;;;;;;1.40;1.30;;;12.60;91.80;;;;;;2064906;28;20170;-65
2021/08/01 04:19:14;;;;;;;0.77;0.77;;;12.60;91.90;;;;;;2063965;28;20178;-65
2021/08/01 04:20:15;;;;;;;1.07;1.07;;;12.60;91.90;;;;;;2064198;28;20633;-66
2021/08/01 04:21:16;;;;;;;1.20;1.10;;;12.70;91.80;;;;;;2064693;28;20202;-65
2021/08/01 04:22:17;;;;;;;0.70;0.67;;;12.70;91.70;;;;;;2064034;28;20661;-66
2021/08/01 04:23:18;;;;;;;2.85;1.92;;;12.70;91.80;;;;;;2064065;28;20225;-65
2021/08/01 04:24:18;;;;;;;1.00;1.00;;;12.70;91.90;;;;;;2064538;28;20201;-65
2021/08/01 04:25:20;;;;;;;0.90;0.90;;;12.70;91.80;;;;;;2064692;28;20241;-65
2021/08/01 04:26:21;;;;;;;1.48;1.38;;;12.70;91.90;;;;;;2064065;28;20185;-65
2021/08/01 04:27:21;;;;;;;1.00;1.00;;;12.70;91.90;;;;;;2063973;28;20193;-66
2021/08/01 04:28:22;;;;;;;1.73;1.63;;;12.70;92.00;;;;;;2064032;28;20178;-65
2021/08/01 04:29:23;;;;;;;1.33;1.27;;;12.70;92.00;;;;;;2064022;28;20174;-65
2021/08/01 04:30:23;;;;;;;0.90;0.90;;;12.70;92.00;;;;;;2064634;28;20248;-65
2021/08/01 04:31:24;;;;;;;2.90;1.47;;;12.70;92.10;;;;;;2064699;28;20182;-65
2021/08/01 04:32:25;;;;;;;0.93;0.93;;;12.70;92.10;;;;;;2063453;28;20186;-65
2021/08/01 04:33:26;;;;;;;1.67;1.57;;;12.70;92.00;;;;;;2058629;28;20696;-65
2021/08/01 04:34:26;;;;;;;0.80;0.80;;;12.60;92.10;;;;;;2055871;28;20218;-65
2021/08/01 04:35:27;;;;;;;1.67;1.40;;;12.60;92.00;;;;;;2056101;28;20225;-65
2021/08/01 04:36:28;;;;;;;1.50;1.40;;;12.60;92.00;;;;;;2056457;28;20194;-65
2021/08/01 04:37:29;;;;;;;1.65;1.55;;;12.60;92.00;;;;;;2047991;29;20510;-65
2021/08/01 04:38:30;;;;;;;1.23;1.10;;;12.70;92.10;;;;;;2048082;29;20231;-65
2021/08/01 04:39:30;;;;;;;2.17;1.90;;;12.70;92.10;;;;;;2056562;28;20190;-66
2021/08/01 04:40:31;;;;;;;1.73;1.40;;;12.70;92.00;;;;;;2055832;28;20183;-65
2021/08/01 04:41:32;;;;;;;1.50;1.40;;;12.70;92.00;;;;;;2047967;29;20180;-66
2021/08/01 04:42:32;;;;;;;1.77;1.03;;;12.70;92.00;;;;;;2047983;29;20272;-65
2021/08/01 04:43:33;;;;;;;1.07;1.00;;;12.70;91.90;;;;;;2056014;28;20260;-65
2021/08/01 04:44:34;;;;;;;0.93;0.93;;;12.70;91.90;;;;;;2056526;28;20199;-65
2021/08/01 04:45:34;;;;;;;1.23;1.20;;;12.80;91.90;;;;;;2056607;28;20186;-65
2021/08/01 04:46:35;;;;;;;1.23;1.20;;;12.80;91.90;;;;;;2056625;28;20563;-66
2021/08/01 04:47:36;;;;;;;1.30;1.30;;;12.80;92.10;;;;;;2056491;28;20183;-65
2021/08/01 04:48:36;;;;;;;1.73;1.33;;;12.80;92.20;;;;;;2055957;28;20214;-65
2021/08/01 04:49:37;;;;;;;1.47;1.37;;;12.80;92.20;;;;;;2056040;28;20630;-66
2021/08/01 04:50:38;;;;;;;2.20;1.80;;;12.80;92.10;;;;;;2056601;28;20183;-67
2021/08/01 04:51:38;;;;;;;2.13;2.03;;;12.80;92.00;;;;;;2056624;28;20212;-66
2021/08/01 04:52:40;;;;;;;1.13;1.13;;;12.90;92.10;;;;;;2055981;28;20171;-66
2021/08/01 04:53:41;;;;;;;1.40;1.30;;;12.90;92.10;;;;;;2056024;28;20696;-66
2021/08/01 04:54:41;;;;;;;1.20;1.10;;;12.90;92.10;;;;;;2056557;28;20203;-66
2021/08/01 04:55:42;;;;;;;1.60;1.47;;;12.90;92.10;;;;;;2053686;28;20442;-65
2021/08/01 04:56:45;;;;;;;1.17;1.17;;;13.00;92.00;;;;;;2047626;28;20187;-66
2021/08/01 04:57:45;;;;;;;1.27;1.25;;;13.00;91.90;;;;;;2040868;28;20188;-66
2021/08/01 04:58:46;;;;;;;1.00;1.00;;;13.00;91.90;;;;;;2055955;28;20215;-66
2021/08/01 04:59:47;;;;;;;2.03;1.37;;;13.00;91.90;;;;;;2055888;28;20203;-66
2021/08/01 05:00:47;;;;;;;1.00;0.93;;;13.00;92.00;;;;;;2055874;28;20523;-66
2021/08/01 05:01:48;;;;;;;1.50;1.40;;;13.00;92.00;;;;;;2048593;28;20180;-66
2021/08/01 05:02:49;;;;;;;1.93;1.43;;;13.10;91.90;;;;;;2048614;28;20208;-66
2021/08/01 05:03:49;;;;;;;4.20;1.33;;;13.10;91.80;;;;;;2055820;28;20175;-66
2021/08/01 05:04:50;;;;;;;0.60;0.60;;;13.10;91.70;;;;;;2056000;28;20195;-66
2021/08/01 05:05:51;;;;;;;1.50;1.40;;;13.10;91.80;;;;;;2056018;28;20227;-66
2021/08/01 05:06:52;;;;;;;2.20;1.67;;;13.10;91.90;;;;;;2056028;28;20175;-66
2021/08/01 05:07:53;;;;;;;2.27;1.73;;;13.10;91.90;;;;;;2048403;29;20457;-66
2021/08/01 05:08:54;;;;;;;0.93;0.93;;;13.10;91.80;;;;;;2055991;28;20183;-66
2021/08/01 05:09:54;;;;;;;1.60;1.50;;;13.10;91.80;;;;;;2055818;28;20179;-66
2021/08/01 05:10:55;;;;;;;2.10;1.80;;;13.10;91.80;;;;;;2056048;28;20175;-66
2021/08/01 05:11:56;;;;;;;1.50;1.40;;;13.10;91.70;;;;;;2047757;29;20736;-66
2021/08/01 05:12:57;;;;;;;1.83;1.50;;;13.10;91.60;;;;;;2039954;29;20538;-66
2021/08/01 05:13:58;;;;;;;0.98;0.98;;;13.10;91.70;;;;;;2039777;29;20212;-66
2021/08/01 05:14:58;;;;;;;1.40;1.30;;;13.10;91.70;;;;;;2047749;29;20282;-66
2021/08/01 05:15:59;;;;;;;1.83;1.70;;;13.20;91.70;;;;;;2048411;28;20520;-66
2021/08/01 05:17:00;;;;;;;1.30;1.30;;;13.20;91.60;;;;;;2048262;28;20259;-66
2021/08/01 05:18:02;;;;;;;1.27;1.17;;;13.30;91.40;;;;;;2048330;28;20234;-66
2021/08/01 05:19:03;;;;;;;1.27;1.17;;;13.30;91.30;;;;;;2047768;29;20230;-66
2021/08/01 05:20:05;;;;;;;1.43;1.33;;;13.30;91.40;;;;;;2047606;28;20438;-66
2021/08/01 05:21:05;;;;;;;1.13;1.10;;;13.30;91.30;;;;;;2055548;28;20186;-66
2021/08/01 05:22:07;;;;;;;1.53;1.43;;;13.30;91.30;;;;;;2048268;29;20187;-66
2021/08/01 05:23:08;;;;;;;1.48;1.38;;;13.30;91.50;;;;;;2048387;28;20259;-66
2021/08/01 05:24:09;;;;;;;2.53;1.60;;;13.30;91.60;;;;;;2049471;29;20208;-65
2021/08/01 05:25:10;;;;;;;1.93;1.47;;;13.30;91.50;;;;;;2049925;28;20170;-66
2021/08/01 05:26:11;;;;;;;1.98;1.20;;;13.30;91.30;;;;;;2049889;28;20210;-66
2021/08/01 05:27:11;;;;;;;1.57;1.47;;;13.30;91.30;;;;;;2049702;28;20672;-66